sensor_id;sensor_type;location;lat;lon;timestamp;temperature;humidity
35129;DHT22;21301;43.626;10.580;2023-04-06T00:01:10;6.00;90.40
35129;DHT22;21301;43.626;10.580;2023-04-06T00:03:37;6.20;90.30
35129;DHT22;21301;43.626;10.580;2023-04-06T00:06:03;6.40;90.50
35129;DHT22;21301;43.626;10.580;2023-04-06T00:08:29;6.40;90.40
35129;DHT22;21301;43.626;10.580;2023-04-06T00:10:55;6.20;91.00
35129;DHT22;21301;43.626;10.580;2023-04-06T00:13:21;6.20;91.30
35129;DHT22;21301;43.626;10.580;2023-04-06T00:15:47;5.90;92.00
35129;DHT22;21301;43.626;10.580;2023-04-06T00:18:13;5.80;91.90
35129;DHT22;21301;43.626;10.580;2023-04-06T00:20:39;5.70;92.40
35129;DHT22;21301;43.626;10.580;2023-04-06T00:23:04;5.60;92.50
35129;DHT22;21301;43.626;10.580;2023-04-06T00:25:30;5.50;92.40
35129;DHT22;21301;43.626;10.580;2023-04-06T00:27:56;5.40;93.10
35129;DHT22;21301;43.626;10.580;2023-04-06T00:30:22;5.20;93.10
35129;DHT22;21301;43.626;10.580;2023-04-06T00:32:48;5.00;93.40
35129;DHT22;21301;43.626;10.580;2023-04-06T00:35:15;4.90;93.50
35129;DHT22;21301;43.626;10.580;2023-04-06T00:37:41;4.90;93.20
35129;DHT22;21301;43.626;10.580;2023-04-06T00:40:07;4.80;93.30
35129;DHT22;21301;43.626;10.580;2023-04-06T00:42:33;4.80;92.70
35129;DHT22;21301;43.626;10.580;2023-04-06T00:45:01;4.80;92.90
35129;DHT22;21301;43.626;10.580;2023-04-06T00:47:27;4.70;93.00
35129;DHT22;21301;43.626;10.580;2023-04-06T00:49:54;4.60;93.20
35129;DHT22;21301;43.626;10.580;2023-04-06T00:52:20;4.60;93.50
35129;DHT22;21301;43.626;10.580;2023-04-06T00:54:48;4.50;93.60
35129;DHT22;21301;43.626;10.580;2023-04-06T00:57:15;4.40;94.10
35129;DHT22;21301;43.626;10.580;2023-04-06T00:59:42;4.40;94.30
35129;DHT22;21301;43.626;10.580;2023-04-06T01:02:11;4.30;94.40
35129;DHT22;21301;43.626;10.580;2023-04-06T01:04:45;4.30;94.70
35129;DHT22;21301;43.626;10.580;2023-04-06T01:07:20;4.40;95.00
35129;DHT22;21301;43.626;10.580;2023-04-06T01:10:01;4.20;95.20
35129;DHT22;21301;43.626;10.580;2023-04-06T01:12:30;4.20;95.80
35129;DHT22;21301;43.626;10.580;2023-04-06T01:14:57;4.40;96.20
35129;DHT22;21301;43.626;10.580;2023-04-06T01:17:24;4.20;96.30
35129;DHT22;21301;43.626;10.580;2023-04-06T01:19:51;4.10;96.80
35129;DHT22;21301;43.626;10.580;2023-04-06T01:22:25;4.00;97.70
35129;DHT22;21301;43.626;10.580;2023-04-06T01:24:57;4.10;98.00
35129;DHT22;21301;43.626;10.580;2023-04-06T01:27:43;4.10;98.20
35129;DHT22;21301;43.626;10.580;2023-04-06T01:30:40;4.00;98.10
35129;DHT22;21301;43.626;10.580;2023-04-06T01:33:21;4.10;98.50
35129;DHT22;21301;43.626;10.580;2023-04-06T01:36:04;4.20;98.70
35129;DHT22;21301;43.626;10.580;2023-04-06T01:38:30;4.30;98.90
35129;DHT22;21301;43.626;10.580;2023-04-06T01:40:56;4.40;99.10
35129;DHT22;21301;43.626;10.580;2023-04-06T01:43:24;4.50;99.00
35129;DHT22;21301;43.626;10.580;2023-04-06T01:46:09;4.60;98.70
35129;DHT22;21301;43.626;10.580;2023-04-06T01:48:38;4.60;98.60
35129;DHT22;21301;43.626;10.580;2023-04-06T01:51:26;4.60;98.80
35129;DHT22;21301;43.626;10.580;2023-04-06T01:53:58;4.70;99.10
35129;DHT22;21301;43.626;10.580;2023-04-06T01:56:35;4.60;98.60
35129;DHT22;21301;43.626;10.580;2023-04-06T01:59:11;4.60;98.50
35129;DHT22;21301;43.626;10.580;2023-04-06T02:01:40;4.60;98.70
35129;DHT22;21301;43.626;10.580;2023-04-06T02:04:06;4.50;98.00
35129;DHT22;21301;43.626;10.580;2023-04-06T02:06:32;4.50;97.10
35129;DHT22;21301;43.626;10.580;2023-04-06T02:09:00;4.50;96.70
35129;DHT22;21301;43.626;10.580;2023-04-06T02:11:26;4.50;96.50
35129;DHT22;21301;43.626;10.580;2023-04-06T02:13:55;4.60;97.00
35129;DHT22;21301;43.626;10.580;2023-04-06T02:16:25;4.70;97.00
35129;DHT22;21301;43.626;10.580;2023-04-06T02:18:51;4.80;96.90
35129;DHT22;21301;43.626;10.580;2023-04-06T02:21:17;4.90;97.00
35129;DHT22;21301;43.626;10.580;2023-04-06T02:23:46;5.00;97.10
35129;DHT22;21301;43.626;10.580;2023-04-06T02:26:13;5.00;96.60
35129;DHT22;21301;43.626;10.580;2023-04-06T02:28:39;5.00;96.40
35129;DHT22;21301;43.626;10.580;2023-04-06T02:31:05;5.00;96.10
35129;DHT22;21301;43.626;10.580;2023-04-06T02:33:31;4.90;95.70
35129;DHT22;21301;43.626;10.580;2023-04-06T02:35:57;4.80;95.20
35129;DHT22;21301;43.626;10.580;2023-04-06T02:38:23;4.70;95.10
35129;DHT22;21301;43.626;10.580;2023-04-06T02:40:51;4.60;95.00
35129;DHT22;21301;43.626;10.580;2023-04-06T02:43:20;4.50;95.30
35129;DHT22;21301;43.626;10.580;2023-04-06T02:45:49;4.50;95.80
35129;DHT22;21301;43.626;10.580;2023-04-06T02:48:16;4.60;96.90
35129;DHT22;21301;43.626;10.580;2023-04-06T02:50:42;4.80;97.30
35129;DHT22;21301;43.626;10.580;2023-04-06T02:53:08;4.80;96.80
35129;DHT22;21301;43.626;10.580;2023-04-06T02:55:36;4.60;96.50
35129;DHT22;21301;43.626;10.580;2023-04-06T02:58:02;4.10;96.50
35129;DHT22;21301;43.626;10.580;2023-04-06T03:00:37;3.40;97.80
35129;DHT22;21301;43.626;10.580;2023-04-06T03:03:03;4.00;99.90
35129;DHT22;21301;43.626;10.580;2023-04-06T03:05:29;4.60;99.90
35129;DHT22;21301;43.626;10.580;2023-04-06T03:07:55;4.80;99.90
35129;DHT22;21301;43.626;10.580;2023-04-06T03:10:37;5.00;99.90
35129;DHT22;21301;43.626;10.580;2023-04-06T03:13:03;5.00;99.40
35129;DHT22;21301;43.626;10.580;2023-04-06T03:15:41;5.10;99.20
35129;DHT22;21301;43.626;10.580;2023-04-06T03:18:14;5.10;98.40
35129;DHT22;21301;43.626;10.580;2023-04-06T03:20:44;5.10;98.80
35129;DHT22;21301;43.626;10.580;2023-04-06T03:23:10;5.10;98.40
35129;DHT22;21301;43.626;10.580;2023-04-06T03:25:40;5.10;98.40
35129;DHT22;21301;43.626;10.580;2023-04-06T03:28:08;5.00;98.10
35129;DHT22;21301;43.626;10.580;2023-04-06T03:30:40;4.90;98.40
35129;DHT22;21301;43.626;10.580;2023-04-06T03:33:07;4.70;98.10
35129;DHT22;21301;43.626;10.580;2023-04-06T03:35:40;4.50;98.40
35129;DHT22;21301;43.626;10.580;2023-04-06T03:38:07;4.20;98.40
35129;DHT22;21301;43.626;10.580;2023-04-06T03:40:33;4.10;98.90
35129;DHT22;21301;43.626;10.580;2023-04-06T03:42:59;3.90;99.20
35129;DHT22;21301;43.626;10.580;2023-04-06T03:45:25;3.70;99.50
35129;DHT22;21301;43.626;10.580;2023-04-06T03:47:51;3.60;99.90
35129;DHT22;21301;43.626;10.580;2023-04-06T03:50:18;3.50;99.90
35129;DHT22;21301;43.626;10.580;2023-04-06T03:52:44;3.50;99.90
35129;DHT22;21301;43.626;10.580;2023-04-06T03:55:10;3.50;99.90
35129;DHT22;21301;43.626;10.580;2023-04-06T03:57:36;3.50;99.90
35129;DHT22;21301;43.626;10.580;2023-04-06T04:00:03;3.50;99.90
35129;DHT22;21301;43.626;10.580;2023-04-06T04:02:38;3.60;99.90
35129;DHT22;21301;43.626;10.580;2023-04-06T04:05:04;3.60;99.90
35129;DHT22;21301;43.626;10.580;2023-04-06T04:07:30;3.60;99.90
35129;DHT22;21301;43.626;10.580;2023-04-06T04:09:56;3.30;99.90
35129;DHT22;21301;43.626;10.580;2023-04-06T04:12:22;3.40;99.90
35129;DHT22;21301;43.626;10.580;2023-04-06T04:14:48;3.10;99.90
35129;DHT22;21301;43.626;10.580;2023-04-06T04:17:14;3.00;99.90
35129;DHT22;21301;43.626;10.580;2023-04-06T04:19:40;2.80;99.90
35129;DHT22;21301;43.626;10.580;2023-04-06T04:22:07;2.60;99.90
35129;DHT22;21301;43.626;10.580;2023-04-06T04:24:37;2.50;99.90
35129;DHT22;21301;43.626;10.580;2023-04-06T04:27:02;2.40;99.90
35129;DHT22;21301;43.626;10.580;2023-04-06T04:29:31;2.30;99.90
35129;DHT22;21301;43.626;10.580;2023-04-06T04:32:01;2.20;99.90
35129;DHT22;21301;43.626;10.580;2023-04-06T04:34:29;2.20;99.90
35129;DHT22;21301;43.626;10.580;2023-04-06T04:36:55;2.20;99.90
35129;DHT22;21301;43.626;10.580;2023-04-06T04:39:32;2.10;99.90
35129;DHT22;21301;43.626;10.580;2023-04-06T04:42:03;2.00;99.90
35129;DHT22;21301;43.626;10.580;2023-04-06T04:44:31;2.00;99.90
35129;DHT22;21301;43.626;10.580;2023-04-06T04:46:57;1.80;99.90
35129;DHT22;21301;43.626;10.580;2023-04-06T04:49:32;1.70;99.90
35129;DHT22;21301;43.626;10.580;2023-04-06T04:51:59;1.70;99.90
35129;DHT22;21301;43.626;10.580;2023-04-06T04:54:35;1.70;99.90
35129;DHT22;21301;43.626;10.580;2023-04-06T04:57:01;1.70;99.90
35129;DHT22;21301;43.626;10.580;2023-04-06T04:59:39;1.80;99.90
35129;DHT22;21301;43.626;10.580;2023-04-06T05:02:15;1.90;99.90
35129;DHT22;21301;43.626;10.580;2023-04-06T05:04:51;2.20;99.90
35129;DHT22;21301;43.626;10.580;2023-04-06T05:07:21;2.30;99.90
35129;DHT22;21301;43.626;10.580;2023-04-06T05:09:48;2.50;99.90
35129;DHT22;21301;43.626;10.580;2023-04-06T05:12:14;2.50;99.90
35129;DHT22;21301;43.626;10.580;2023-04-06T05:14:50;2.40;99.90
35129;DHT22;21301;43.626;10.580;2023-04-06T05:17:18;2.20;99.90
35129;DHT22;21301;43.626;10.580;2023-04-06T05:19:44;2.20;99.90
35129;DHT22;21301;43.626;10.580;2023-04-06T05:22:13;2.40;99.90
35129;DHT22;21301;43.626;10.580;2023-04-06T05:24:44;2.70;99.90
35129;DHT22;21301;43.626;10.580;2023-04-06T05:27:10;3.00;99.90
35129;DHT22;21301;43.626;10.580;2023-04-06T05:29:37;3.30;99.90
35129;DHT22;21301;43.626;10.580;2023-04-06T05:32:03;3.60;99.90
35129;DHT22;21301;43.626;10.580;2023-04-06T05:34:30;4.00;99.90
35129;DHT22;21301;43.626;10.580;2023-04-06T05:37:01;4.50;99.90
35129;DHT22;21301;43.626;10.580;2023-04-06T05:39:27;5.20;99.90
35129;DHT22;21301;43.626;10.580;2023-04-06T05:41:53;5.60;99.90
35129;DHT22;21301;43.626;10.580;2023-04-06T05:44:37;6.10;99.90
35129;DHT22;21301;43.626;10.580;2023-04-06T05:47:13;6.40;98.70
35129;DHT22;21301;43.626;10.580;2023-04-06T05:49:43;6.90;98.40
35129;DHT22;21301;43.626;10.580;2023-04-06T05:52:16;7.40;97.70
35129;DHT22;21301;43.626;10.580;2023-04-06T05:54:45;7.70;97.30
35129;DHT22;21301;43.626;10.580;2023-04-06T05:57:11;7.80;96.10
35129;DHT22;21301;43.626;10.580;2023-04-06T05:59:38;8.00;96.40
35129;DHT22;21301;43.626;10.580;2023-04-06T06:02:04;8.10;96.40
35129;DHT22;21301;43.626;10.580;2023-04-06T06:04:34;8.30;96.00
35129;DHT22;21301;43.626;10.580;2023-04-06T06:07:01;8.30;95.50
35129;DHT22;21301;43.626;10.580;2023-04-06T06:09:33;8.20;95.90
35129;DHT22;21301;43.626;10.580;2023-04-06T06:12:16;8.20;95.50
35129;DHT22;21301;43.626;10.580;2023-04-06T06:14:42;7.80;95.90
35129;DHT22;21301;43.626;10.580;2023-04-06T06:17:08;7.50;96.00
35129;DHT22;21301;43.626;10.580;2023-04-06T06:19:35;7.20;95.80
35129;DHT22;21301;43.626;10.580;2023-04-06T06:22:05;6.90;96.00
35129;DHT22;21301;43.626;10.580;2023-04-06T06:24:34;6.90;96.60
35129;DHT22;21301;43.626;10.580;2023-04-06T06:27:00;6.90;96.50
35129;DHT22;21301;43.626;10.580;2023-04-06T06:29:29;7.00;96.60
35129;DHT22;21301;43.626;10.580;2023-04-06T06:31:55;7.30;96.70
35129;DHT22;21301;43.626;10.580;2023-04-06T06:34:22;7.30;96.20
35129;DHT22;21301;43.626;10.580;2023-04-06T06:36:49;7.50;95.80
35129;DHT22;21301;43.626;10.580;2023-04-06T06:39:15;7.50;95.60
35129;DHT22;21301;43.626;10.580;2023-04-06T06:41:42;7.40;95.70
35129;DHT22;21301;43.626;10.580;2023-04-06T06:44:08;7.70;95.50
35129;DHT22;21301;43.626;10.580;2023-04-06T06:46:34;7.70;95.20
35129;DHT22;21301;43.626;10.580;2023-04-06T06:49:00;8.00;95.30
35129;DHT22;21301;43.626;10.580;2023-04-06T06:51:26;8.30;95.10
35129;DHT22;21301;43.626;10.580;2023-04-06T06:53:52;8.90;95.10
35129;DHT22;21301;43.626;10.580;2023-04-06T06:56:18;8.90;94.50
35129;DHT22;21301;43.626;10.580;2023-04-06T06:58:44;8.80;94.40
35129;DHT22;21301;43.626;10.580;2023-04-06T07:01:10;8.90;94.20
35129;DHT22;21301;43.626;10.580;2023-04-06T07:03:37;9.10;94.30
35129;DHT22;21301;43.626;10.580;2023-04-06T07:06:03;9.30;94.10
35129;DHT22;21301;43.626;10.580;2023-04-06T07:08:29;9.60;94.10
35129;DHT22;21301;43.626;10.580;2023-04-06T07:10:54;10.00;93.80
35129;DHT22;21301;43.626;10.580;2023-04-06T07:13:23;10.20;93.30
35129;DHT22;21301;43.626;10.580;2023-04-06T07:15:52;10.30;92.90
35129;DHT22;21301;43.626;10.580;2023-04-06T07:18:19;10.50;93.00
35129;DHT22;21301;43.626;10.580;2023-04-06T07:20:46;10.60;92.60
35129;DHT22;21301;43.626;10.580;2023-04-06T07:23:12;10.50;92.40
35129;DHT22;21301;43.626;10.580;2023-04-06T07:25:38;10.70;92.60
35129;DHT22;21301;43.626;10.580;2023-04-06T07:28:04;10.90;92.50
35129;DHT22;21301;43.626;10.580;2023-04-06T07:30:31;10.80;92.20
35129;DHT22;21301;43.626;10.580;2023-04-06T07:32:58;10.90;92.10
35129;DHT22;21301;43.626;10.580;2023-04-06T07:35:27;11.00;91.90
35129;DHT22;21301;43.626;10.580;2023-04-06T07:37:54;11.20;91.90
35129;DHT22;21301;43.626;10.580;2023-04-06T07:40:21;11.50;91.60
35129;DHT22;21301;43.626;10.580;2023-04-06T07:42:48;11.60;91.20
35129;DHT22;21301;43.626;10.580;2023-04-06T07:45:14;11.80;90.80
35129;DHT22;21301;43.626;10.580;2023-04-06T07:47:42;11.80;90.80
35129;DHT22;21301;43.626;10.580;2023-04-06T07:50:08;11.90;90.80
35129;DHT22;21301;43.626;10.580;2023-04-06T07:52:35;11.90;90.70
35129;DHT22;21301;43.626;10.580;2023-04-06T07:55:01;11.90;90.10
35129;DHT22;21301;43.626;10.580;2023-04-06T07:57:27;12.00;90.10
35129;DHT22;21301;43.626;10.580;2023-04-06T07:59:52;12.20;89.80
35129;DHT22;21301;43.626;10.580;2023-04-06T08:02:18;12.40;89.60
35129;DHT22;21301;43.626;10.580;2023-04-06T08:04:44;12.50;89.50
35129;DHT22;21301;43.626;10.580;2023-04-06T08:07:10;12.80;89.40
35129;DHT22;21301;43.626;10.580;2023-04-06T08:09:36;13.00;89.20
35129;DHT22;21301;43.626;10.580;2023-04-06T08:12:03;13.40;89.30
35129;DHT22;21301;43.626;10.580;2023-04-06T08:14:29;13.50;88.40
35129;DHT22;21301;43.626;10.580;2023-04-06T08:16:55;13.10;87.00
35129;DHT22;21301;43.626;10.580;2023-04-06T08:19:21;13.20;87.90
35129;DHT22;21301;43.626;10.580;2023-04-06T08:21:47;13.50;87.30
35129;DHT22;21301;43.626;10.580;2023-04-06T08:24:13;13.60;86.60
35129;DHT22;21301;43.626;10.580;2023-04-06T08:26:39;13.80;86.10
35129;DHT22;21301;43.626;10.580;2023-04-06T08:29:05;14.10;85.40
35129;DHT22;21301;43.626;10.580;2023-04-06T08:31:34;13.90;85.10
35129;DHT22;21301;43.626;10.580;2023-04-06T08:34:00;14.20;83.90
35129;DHT22;21301;43.626;10.580;2023-04-06T08:36:26;14.20;84.00
35129;DHT22;21301;43.626;10.580;2023-04-06T08:38:52;14.40;84.20
35129;DHT22;21301;43.626;10.580;2023-04-06T08:41:18;14.30;83.20
35129;DHT22;21301;43.626;10.580;2023-04-06T08:43:46;14.10;83.10
35129;DHT22;21301;43.626;10.580;2023-04-06T08:46:12;14.40;83.50
35129;DHT22;21301;43.626;10.580;2023-04-06T08:48:40;14.30;82.30
35129;DHT22;21301;43.626;10.580;2023-04-06T08:51:06;14.30;82.10
35129;DHT22;21301;43.626;10.580;2023-04-06T08:53:33;14.00;82.50
35129;DHT22;21301;43.626;10.580;2023-04-06T08:55:59;14.50;83.60
35129;DHT22;21301;43.626;10.580;2023-04-06T08:58:28;14.70;82.70
35129;DHT22;21301;43.626;10.580;2023-04-06T09:00:56;15.00;81.00
35129;DHT22;21301;43.626;10.580;2023-04-06T09:03:23;15.60;82.40
35129;DHT22;21301;43.626;10.580;2023-04-06T09:05:50;15.70;81.50
35129;DHT22;21301;43.626;10.580;2023-04-06T09:08:16;15.70;81.80
35129;DHT22;21301;43.626;10.580;2023-04-06T09:10:42;15.50;81.80
35129;DHT22;21301;43.626;10.580;2023-04-06T09:13:08;15.70;81.30
35129;DHT22;21301;43.626;10.580;2023-04-06T09:15:34;16.00;81.10
35129;DHT22;21301;43.626;10.580;2023-04-06T09:18:01;15.90;81.20
35129;DHT22;21301;43.626;10.580;2023-04-06T09:20:27;16.00;80.70
35129;DHT22;21301;43.626;10.580;2023-04-06T09:22:54;16.20;80.50
35129;DHT22;21301;43.626;10.580;2023-04-06T09:25:22;16.50;81.20
35129;DHT22;21301;43.626;10.580;2023-04-06T09:28:02;16.30;79.10
35129;DHT22;21301;43.626;10.580;2023-04-06T09:30:28;16.30;78.90
35129;DHT22;21301;43.626;10.580;2023-04-06T09:32:55;16.50;80.60
35129;DHT22;21301;43.626;10.580;2023-04-06T09:35:23;16.40;79.40
35129;DHT22;21301;43.626;10.580;2023-04-06T09:37:50;16.80;79.70
35129;DHT22;21301;43.626;10.580;2023-04-06T09:40:17;16.90;80.00
35129;DHT22;21301;43.626;10.580;2023-04-06T09:42:48;17.20;79.90
35129;DHT22;21301;43.626;10.580;2023-04-06T09:45:20;16.80;77.80
35129;DHT22;21301;43.626;10.580;2023-04-06T09:47:46;17.30;79.20
35129;DHT22;21301;43.626;10.580;2023-04-06T09:50:13;17.20;78.10
35129;DHT22;21301;43.626;10.580;2023-04-06T09:55:08;16.90;78.50
35129;DHT22;21301;43.626;10.580;2023-04-06T09:57:45;17.60;78.60
35129;DHT22;21301;43.626;10.580;2023-04-06T10:00:17;17.90;76.10
35129;DHT22;21301;43.626;10.580;2023-04-06T10:02:59;17.90;77.20
35129;DHT22;21301;43.626;10.580;2023-04-06T10:08:14;17.80;77.20
35129;DHT22;21301;43.626;10.580;2023-04-06T10:10:41;18.30;77.70
35129;DHT22;21301;43.626;10.580;2023-04-06T10:13:09;18.50;76.90
35129;DHT22;21301;43.626;10.580;2023-04-06T10:15:38;18.80;76.60
35129;DHT22;21301;43.626;10.580;2023-04-06T10:18:05;18.60;77.00
35129;DHT22;21301;43.626;10.580;2023-04-06T10:21:14;18.40;77.50
35129;DHT22;21301;43.626;10.580;2023-04-06T10:23:57;18.20;75.00
35129;DHT22;21301;43.626;10.580;2023-04-06T10:26:23;18.50;76.20
35129;DHT22;21301;43.626;10.580;2023-04-06T10:28:50;18.30;76.20
35129;DHT22;21301;43.626;10.580;2023-04-06T10:31:25;18.40;75.30
35129;DHT22;21301;43.626;10.580;2023-04-06T10:34:02;18.20;74.10
35129;DHT22;21301;43.626;10.580;2023-04-06T10:36:32;18.60;75.10
35129;DHT22;21301;43.626;10.580;2023-04-06T10:39:03;18.70;74.70
35129;DHT22;21301;43.626;10.580;2023-04-06T10:41:44;18.00;74.30
35129;DHT22;21301;43.626;10.580;2023-04-06T10:44:23;18.20;74.70
35129;DHT22;21301;43.626;10.580;2023-04-06T10:46:57;18.10;75.10
35129;DHT22;21301;43.626;10.580;2023-04-06T10:49:25;18.60;74.80
35129;DHT22;21301;43.626;10.580;2023-04-06T10:51:54;18.20;74.60
35129;DHT22;21301;43.626;10.580;2023-04-06T10:54:24;18.20;74.50
35129;DHT22;21301;43.626;10.580;2023-04-06T10:56:52;18.80;73.30
35129;DHT22;21301;43.626;10.580;2023-04-06T10:59:21;19.00;73.80
35129;DHT22;21301;43.626;10.580;2023-04-06T11:01:48;18.70;73.50
35129;DHT22;21301;43.626;10.580;2023-04-06T11:04:17;18.50;73.30
35129;DHT22;21301;43.626;10.580;2023-04-06T11:06:47;18.40;72.80
35129;DHT22;21301;43.626;10.580;2023-04-06T11:09:24;18.60;72.00
35129;DHT22;21301;43.626;10.580;2023-04-06T11:11:50;19.00;69.20
35129;DHT22;21301;43.626;10.580;2023-04-06T11:14:17;18.30;68.70
35129;DHT22;21301;43.626;10.580;2023-04-06T11:16:46;18.80;70.30
35129;DHT22;21301;43.626;10.580;2023-04-06T11:19:13;18.70;67.20
35129;DHT22;21301;43.626;10.580;2023-04-06T11:21:41;18.60;67.80
35129;DHT22;21301;43.626;10.580;2023-04-06T11:24:13;19.00;68.50
35129;DHT22;21301;43.626;10.580;2023-04-06T11:26:48;19.40;67.20
35129;DHT22;21301;43.626;10.580;2023-04-06T11:29:21;19.40;69.70
35129;DHT22;21301;43.626;10.580;2023-04-06T11:31:51;19.30;69.10
35129;DHT22;21301;43.626;10.580;2023-04-06T11:34:22;18.90;67.90
35129;DHT22;21301;43.626;10.580;2023-04-06T11:36:49;19.00;67.30
35129;DHT22;21301;43.626;10.580;2023-04-06T11:39:24;18.70;66.00
35129;DHT22;21301;43.626;10.580;2023-04-06T11:41:54;18.30;63.60
35129;DHT22;21301;43.626;10.580;2023-04-06T11:44:38;18.00;63.90
35129;DHT22;21301;43.626;10.580;2023-04-06T11:47:10;17.90;65.90
35129;DHT22;21301;43.626;10.580;2023-04-06T11:49:41;18.40;67.40
35129;DHT22;21301;43.626;10.580;2023-04-06T11:52:22;18.80;66.90
35129;DHT22;21301;43.626;10.580;2023-04-06T11:54:50;19.20;67.20
35129;DHT22;21301;43.626;10.580;2023-04-06T11:57:17;19.40;67.00
35129;DHT22;21301;43.626;10.580;2023-04-06T11:59:44;19.00;66.50
35129;DHT22;21301;43.626;10.580;2023-04-06T12:02:10;18.40;65.90
35129;DHT22;21301;43.626;10.580;2023-04-06T12:04:36;18.30;66.30
35129;DHT22;21301;43.626;10.580;2023-04-06T12:07:03;17.90;65.50
35129;DHT22;21301;43.626;10.580;2023-04-06T12:09:29;18.00;66.90
35129;DHT22;21301;43.626;10.580;2023-04-06T12:11:55;17.90;66.50
35129;DHT22;21301;43.626;10.580;2023-04-06T12:14:22;17.90;66.50
35129;DHT22;21301;43.626;10.580;2023-04-06T12:16:48;18.00;65.70
35129;DHT22;21301;43.626;10.580;2023-04-06T12:19:14;17.80;65.90
35129;DHT22;21301;43.626;10.580;2023-04-06T12:21:40;17.80;66.10
35129;DHT22;21301;43.626;10.580;2023-04-06T12:24:06;17.50;64.40
35129;DHT22;21301;43.626;10.580;2023-04-06T12:26:33;17.90;64.90
35129;DHT22;21301;43.626;10.580;2023-04-06T12:28:59;17.30;63.60
35129;DHT22;21301;43.626;10.580;2023-04-06T12:31:36;17.50;65.30
35129;DHT22;21301;43.626;10.580;2023-04-06T12:34:03;17.90;65.00
35129;DHT22;21301;43.626;10.580;2023-04-06T12:36:29;18.30;65.20
35129;DHT22;21301;43.626;10.580;2023-04-06T12:38:56;18.40;66.00
35129;DHT22;21301;43.626;10.580;2023-04-06T12:41:22;18.60;68.40
35129;DHT22;21301;43.626;10.580;2023-04-06T12:43:49;18.20;68.80
35129;DHT22;21301;43.626;10.580;2023-04-06T12:46:17;18.30;69.90
35129;DHT22;21301;43.626;10.580;2023-04-06T12:48:43;18.20;70.90
35129;DHT22;21301;43.626;10.580;2023-04-06T12:51:09;17.40;72.40
35129;DHT22;21301;43.626;10.580;2023-04-06T12:53:35;17.40;73.10
35129;DHT22;21301;43.626;10.580;2023-04-06T12:56:02;17.60;73.50
35129;DHT22;21301;43.626;10.580;2023-04-06T12:58:28;17.40;74.60
35129;DHT22;21301;43.626;10.580;2023-04-06T13:00:55;17.20;74.30
35129;DHT22;21301;43.626;10.580;2023-04-06T13:03:23;17.00;74.20
35129;DHT22;21301;43.626;10.580;2023-04-06T13:05:52;16.90;75.20
35129;DHT22;21301;43.626;10.580;2023-04-06T13:08:19;17.00;75.20
35129;DHT22;21301;43.626;10.580;2023-04-06T13:10:51;17.10;75.10
35129;DHT22;21301;43.626;10.580;2023-04-06T13:13:28;17.00;75.30
35129;DHT22;21301;43.626;10.580;2023-04-06T13:15:55;16.80;75.60
35129;DHT22;21301;43.626;10.580;2023-04-06T13:18:21;16.90;75.40
35129;DHT22;21301;43.626;10.580;2023-04-06T13:20:48;16.70;75.00
35129;DHT22;21301;43.626;10.580;2023-04-06T13:23:14;16.90;75.70
35129;DHT22;21301;43.626;10.580;2023-04-06T13:25:40;16.80;75.60
35129;DHT22;21301;43.626;10.580;2023-04-06T13:28:07;16.50;75.30
35129;DHT22;21301;43.626;10.580;2023-04-06T13:30:33;16.60;76.10
35129;DHT22;21301;43.626;10.580;2023-04-06T13:32:59;16.60;75.80
35129;DHT22;21301;43.626;10.580;2023-04-06T13:35:25;16.30;76.20
35129;DHT22;21301;43.626;10.580;2023-04-06T13:37:51;16.30;75.80
35129;DHT22;21301;43.626;10.580;2023-04-06T13:40:18;16.50;75.20
35129;DHT22;21301;43.626;10.580;2023-04-06T13:42:44;16.50;76.60
35129;DHT22;21301;43.626;10.580;2023-04-06T13:45:11;16.50;75.20
35129;DHT22;21301;43.626;10.580;2023-04-06T13:47:37;16.40;73.80
35129;DHT22;21301;43.626;10.580;2023-04-06T13:50:03;16.30;74.00
35129;DHT22;21301;43.626;10.580;2023-04-06T13:52:32;16.50;73.80
35129;DHT22;21301;43.626;10.580;2023-04-06T13:55:02;16.50;73.50
35129;DHT22;21301;43.626;10.580;2023-04-06T13:57:36;16.80;73.30
35129;DHT22;21301;43.626;10.580;2023-04-06T14:00:42;16.80;72.80
35129;DHT22;21301;43.626;10.580;2023-04-06T14:03:11;16.90;71.80
35129;DHT22;21301;43.626;10.580;2023-04-06T14:05:41;16.60;72.20
35129;DHT22;21301;43.626;10.580;2023-04-06T14:08:19;16.80;73.40
35129;DHT22;21301;43.626;10.580;2023-04-06T14:10:52;16.60;74.40
35129;DHT22;21301;43.626;10.580;2023-04-06T14:13:22;16.50;74.10
35129;DHT22;21301;43.626;10.580;2023-04-06T14:15:53;16.50;74.00
35129;DHT22;21301;43.626;10.580;2023-04-06T14:18:26;16.20;73.60
35129;DHT22;21301;43.626;10.580;2023-04-06T14:21:10;16.30;74.30
35129;DHT22;21301;43.626;10.580;2023-04-06T14:23:59;16.10;73.20
35129;DHT22;21301;43.626;10.580;2023-04-06T14:26:26;15.70;73.70
35129;DHT22;21301;43.626;10.580;2023-04-06T14:28:56;15.50;73.50
35129;DHT22;21301;43.626;10.580;2023-04-06T14:31:28;15.40;73.80
35129;DHT22;21301;43.626;10.580;2023-04-06T14:33:58;15.70;75.30
35129;DHT22;21301;43.626;10.580;2023-04-06T14:36:30;15.70;74.30
35129;DHT22;21301;43.626;10.580;2023-04-06T14:39:16;15.80;75.50
35129;DHT22;21301;43.626;10.580;2023-04-06T14:42:12;15.40;74.90
35129;DHT22;21301;43.626;10.580;2023-04-06T14:44:42;15.40;74.50
35129;DHT22;21301;43.626;10.580;2023-04-06T14:47:15;15.30;74.70
35129;DHT22;21301;43.626;10.580;2023-04-06T14:50:10;15.10;74.30
35129;DHT22;21301;43.626;10.580;2023-04-06T14:52:36;14.70;73.50
35129;DHT22;21301;43.626;10.580;2023-04-06T14:55:03;14.60;74.20
35129;DHT22;21301;43.626;10.580;2023-04-06T14:57:29;14.80;73.60
35129;DHT22;21301;43.626;10.580;2023-04-06T14:59:56;14.70;73.10
35129;DHT22;21301;43.626;10.580;2023-04-06T15:02:22;14.50;73.30
35129;DHT22;21301;43.626;10.580;2023-04-06T15:04:48;14.30;74.30
35129;DHT22;21301;43.626;10.580;2023-04-06T15:07:16;14.20;72.70
35129;DHT22;21301;43.626;10.580;2023-04-06T15:09:42;14.40;75.20
35129;DHT22;21301;43.626;10.580;2023-04-06T15:12:10;14.80;75.30
35129;DHT22;21301;43.626;10.580;2023-04-06T15:14:40;14.70;75.30
35129;DHT22;21301;43.626;10.580;2023-04-06T15:17:06;14.70;76.10
35129;DHT22;21301;43.626;10.580;2023-04-06T15:19:32;14.70;75.50
35129;DHT22;21301;43.626;10.580;2023-04-06T15:21:58;14.60;75.80
35129;DHT22;21301;43.626;10.580;2023-04-06T15:24:23;14.80;76.30
35129;DHT22;21301;43.626;10.580;2023-04-06T15:26:49;14.60;77.20
35129;DHT22;21301;43.626;10.580;2023-04-06T15:29:16;14.80;76.90
35129;DHT22;21301;43.626;10.580;2023-04-06T15:31:42;15.20;77.00
35129;DHT22;21301;43.626;10.580;2023-04-06T15:34:08;14.90;76.70
35129;DHT22;21301;43.626;10.580;2023-04-06T15:36:34;14.80;76.80
35129;DHT22;21301;43.626;10.580;2023-04-06T15:39:01;14.90;77.40